sensor_id;sensor_type;location;lat;lon;timestamp;P1;durP1;ratioP1;P2;durP2;ratioP2
44304;SDS011;30019;50.576;8.568;2022-12-07T00:01:22;61.17;;;28.20;;
44304;SDS011;30019;50.576;8.568;2022-12-07T00:03:50;68.32;;;28.10;;
44304;SDS011;30019;50.576;8.568;2022-12-07T00:06:17;62.30;;;28.65;;
44304;SDS011;30019;50.576;8.568;2022-12-07T00:08:44;64.47;;;29.35;;
44304;SDS011;30019;50.576;8.568;2022-12-07T00:11:12;68.45;;;29.60;;
44304;SDS011;30019;50.576;8.568;2022-12-07T00:13:40;70.32;;;29.87;;
44304;SDS011;30019;50.576;8.568;2022-12-07T00:16:07;65.22;;;30.10;;
44304;SDS011;30019;50.576;8.568;2022-12-07T00:18:35;64.72;;;29.30;;
44304;SDS011;30019;50.576;8.568;2022-12-07T00:21:09;70.70;;;30.05;;
44304;SDS011;30019;50.576;8.568;2022-12-07T00:23:37;67.05;;;28.33;;
44304;SDS011;30019;50.576;8.568;2022-12-07T00:26:07;64.87;;;29.60;;
44304;SDS011;30019;50.576;8.568;2022-12-07T00:28:37;61.72;;;27.70;;
44304;SDS011;30019;50.576;8.568;2022-12-07T00:31:07;66.32;;;28.98;;
44304;SDS011;30019;50.576;8.568;2022-12-07T00:33:34;65.28;;;28.38;;
44304;SDS011;30019;50.576;8.568;2022-12-07T00:36:01;65.62;;;30.27;;
44304;SDS011;30019;50.576;8.568;2022-12-07T00:38:30;68.35;;;27.77;;
44304;SDS011;30019;50.576;8.568;2022-12-07T00:40:57;61.80;;;29.48;;
44304;SDS011;30019;50.576;8.568;2022-12-07T00:43:24;65.20;;;29.60;;
44304;SDS011;30019;50.576;8.568;2022-12-07T00:45:50;64.25;;;28.27;;
44304;SDS011;30019;50.576;8.568;2022-12-07T00:48:15;67.60;;;31.12;;
44304;SDS011;30019;50.576;8.568;2022-12-07T00:50:41;69.80;;;29.12;;
44304;SDS011;30019;50.576;8.568;2022-12-07T00:53:06;69.45;;;30.30;;
44304;SDS011;30019;50.576;8.568;2022-12-07T00:55:32;61.67;;;28.58;;
44304;SDS011;30019;50.576;8.568;2022-12-07T00:57:58;68.30;;;31.27;;
44304;SDS011;30019;50.576;8.568;2022-12-07T01:00:24;64.50;;;30.75;;
44304;SDS011;30019;50.576;8.568;2022-12-07T01:02:50;65.43;;;31.12;;
44304;SDS011;30019;50.576;8.568;2022-12-07T01:05:15;72.65;;;32.38;;
44304;SDS011;30019;50.576;8.568;2022-12-07T01:07:41;64.57;;;30.10;;
44304;SDS011;30019;50.576;8.568;2022-12-07T01:10:06;63.75;;;29.95;;
44304;SDS011;30019;50.576;8.568;2022-12-07T01:12:32;64.87;;;31.30;;
44304;SDS011;30019;50.576;8.568;2022-12-07T01:14:58;58.83;;;29.48;;
44304;SDS011;30019;50.576;8.568;2022-12-07T01:17:23;60.40;;;31.05;;
44304;SDS011;30019;50.576;8.568;2022-12-07T01:19:49;61.00;;;29.15;;
44304;SDS011;30019;50.576;8.568;2022-12-07T01:22:14;59.70;;;28.65;;
44304;SDS011;30019;50.576;8.568;2022-12-07T01:24:40;55.80;;;26.95;;
44304;SDS011;30019;50.576;8.568;2022-12-07T01:27:05;60.58;;;28.25;;
44304;SDS011;30019;50.576;8.568;2022-12-07T01:29:31;63.72;;;29.65;;
44304;SDS011;30019;50.576;8.568;2022-12-07T01:31:56;57.03;;;27.92;;
44304;SDS011;30019;50.576;8.568;2022-12-07T01:34:22;59.97;;;27.52;;
44304;SDS011;30019;50.576;8.568;2022-12-07T01:36:47;51.95;;;25.88;;
44304;SDS011;30019;50.576;8.568;2022-12-07T01:39:13;56.37;;;28.00;;
44304;SDS011;30019;50.576;8.568;2022-12-07T01:41:40;51.72;;;25.65;;
44304;SDS011;30019;50.576;8.568;2022-12-07T01:44:24;42.30;;;23.23;;
44304;SDS011;30019;50.576;8.568;2022-12-07T01:46:55;42.78;;;23.52;;
44304;SDS011;30019;50.576;8.568;2022-12-07T01:52:00;41.28;;;22.08;;
44304;SDS011;30019;50.576;8.568;2022-12-07T01:54:39;41.53;;;22.67;;
44304;SDS011;30019;50.576;8.568;2022-12-07T01:57:06;41.08;;;22.08;;
44304;SDS011;30019;50.576;8.568;2022-12-07T01:59:33;38.22;;;20.45;;
44304;SDS011;30019;50.576;8.568;2022-12-07T02:01:59;33.22;;;18.90;;
44304;SDS011;30019;50.576;8.568;2022-12-07T02:04:28;34.70;;;20.48;;
44304;SDS011;30019;50.576;8.568;2022-12-07T02:06:55;41.05;;;20.25;;
44304;SDS011;30019;50.576;8.568;2022-12-07T02:09:22;36.38;;;19.37;;
44304;SDS011;30019;50.576;8.568;2022-12-07T02:11:48;36.72;;;20.23;;
44304;SDS011;30019;50.576;8.568;2022-12-07T02:14:14;33.15;;;18.98;;
44304;SDS011;30019;50.576;8.568;2022-12-07T02:22:39;32.97;;;18.62;;
44304;SDS011;30019;50.576;8.568;2022-12-07T02:25:33;36.13;;;20.42;;
44304;SDS011;30019;50.576;8.568;2022-12-07T02:28:28;34.63;;;17.55;;
44304;SDS011;30019;50.576;8.568;2022-12-07T02:30:58;31.92;;;18.60;;
44304;SDS011;30019;50.576;8.568;2022-12-07T02:34:12;36.65;;;19.23;;
44304;SDS011;30019;50.576;8.568;2022-12-07T02:36:29;33.92;;;18.85;;
44304;SDS011;30019;50.576;8.568;2022-12-07T02:42:02;35.88;;;17.52;;
44304;SDS011;30019;50.576;8.568;2022-12-07T02:44:34;34.67;;;17.67;;
44304;SDS011;30019;50.576;8.568;2022-12-07T02:47:02;34.30;;;17.08;;
44304;SDS011;30019;50.576;8.568;2022-12-07T02:49:31;31.00;;;17.80;;
44304;SDS011;30019;50.576;8.568;2022-12-07T02:51:58;32.30;;;17.37;;
44304;SDS011;30019;50.576;8.568;2022-12-07T02:54:24;30.67;;;16.83;;
44304;SDS011;30019;50.576;8.568;2022-12-07T02:56:51;31.65;;;17.67;;
44304;SDS011;30019;50.576;8.568;2022-12-07T03:10:44;35.47;;;19.65;;
44304;SDS011;30019;50.576;8.568;2022-12-07T03:13:37;34.33;;;18.87;;
44304;SDS011;30019;50.576;8.568;2022-12-07T03:16:20;34.00;;;19.48;;
44304;SDS011;30019;50.576;8.568;2022-12-07T03:18:56;34.03;;;18.92;;
44304;SDS011;30019;50.576;8.568;2022-12-07T03:21:31;38.65;;;19.20;;
44304;SDS011;30019;50.576;8.568;2022-12-07T03:24:00;36.53;;;20.27;;
44304;SDS011;30019;50.576;8.568;2022-12-07T03:26:34;36.10;;;19.92;;
44304;SDS011;30019;50.576;8.568;2022-12-07T03:29:05;33.15;;;18.77;;
44304;SDS011;30019;50.576;8.568;2022-12-07T03:31:35;35.35;;;19.40;;
44304;SDS011;30019;50.576;8.568;2022-12-07T03:34:08;40.25;;;21.58;;
44304;SDS011;30019;50.576;8.568;2022-12-07T03:37:02;36.97;;;20.17;;
44304;SDS011;30019;50.576;8.568;2022-12-07T03:42:39;36.42;;;20.70;;
44304;SDS011;30019;50.576;8.568;2022-12-07T03:45:05;34.33;;;19.75;;
44304;SDS011;30019;50.576;8.568;2022-12-07T03:50:02;34.92;;;19.10;;
44304;SDS011;30019;50.576;8.568;2022-12-07T03:53:29;31.80;;;16.40;;
44304;SDS011;30019;50.576;8.568;2022-12-07T03:55:49;41.78;;;19.60;;
44304;SDS011;30019;50.576;8.568;2022-12-07T03:58:18;37.97;;;19.95;;
44304;SDS011;30019;50.576;8.568;2022-12-07T04:00:46;34.63;;;19.77;;
44304;SDS011;30019;50.576;8.568;2022-12-07T04:03:13;35.42;;;19.35;;
44304;SDS011;30019;50.576;8.568;2022-12-07T04:05:39;34.05;;;19.05;;
44304;SDS011;30019;50.576;8.568;2022-12-07T04:08:05;32.60;;;18.95;;
44304;SDS011;30019;50.576;8.568;2022-12-07T04:10:31;35.83;;;19.67;;
44304;SDS011;30019;50.576;8.568;2022-12-07T04:12:56;35.75;;;18.92;;
44304;SDS011;30019;50.576;8.568;2022-12-07T04:15:22;31.60;;;18.42;;
44304;SDS011;30019;50.576;8.568;2022-12-07T04:17:47;33.97;;;18.83;;
44304;SDS011;30019;50.576;8.568;2022-12-07T04:20:13;31.67;;;18.20;;
44304;SDS011;30019;50.576;8.568;2022-12-07T04:22:39;32.72;;;19.27;;
44304;SDS011;30019;50.576;8.568;2022-12-07T04:25:05;36.28;;;18.00;;
44304;SDS011;30019;50.576;8.568;2022-12-07T04:27:31;33.97;;;18.58;;
44304;SDS011;30019;50.576;8.568;2022-12-07T04:29:56;30.02;;;17.27;;
44304;SDS011;30019;50.576;8.568;2022-12-07T04:32:22;29.80;;;17.48;;
44304;SDS011;30019;50.576;8.568;2022-12-07T04:34:48;39.20;;;18.90;;
44304;SDS011;30019;50.576;8.568;2022-12-07T04:37:14;34.55;;;19.50;;
44304;SDS011;30019;50.576;8.568;2022-12-07T04:39:39;39.63;;;19.50;;
44304;SDS011;30019;50.576;8.568;2022-12-07T04:42:05;36.42;;;19.02;;
44304;SDS011;30019;50.576;8.568;2022-12-07T04:44:31;34.40;;;19.35;;
44304;SDS011;30019;50.576;8.568;2022-12-07T04:46:56;37.33;;;18.90;;
44304;SDS011;30019;50.576;8.568;2022-12-07T04:49:22;37.45;;;19.75;;
44304;SDS011;30019;50.576;8.568;2022-12-07T04:51:49;33.35;;;18.95;;
44304;SDS011;30019;50.576;8.568;2022-12-07T04:54:15;37.13;;;20.05;;
44304;SDS011;30019;50.576;8.568;2022-12-07T04:56:41;37.35;;;20.50;;
44304;SDS011;30019;50.576;8.568;2022-12-07T04:59:07;37.47;;;20.13;;
44304;SDS011;30019;50.576;8.568;2022-12-07T05:01:34;35.17;;;20.08;;
44304;SDS011;30019;50.576;8.568;2022-12-07T05:04:00;37.58;;;20.45;;
44304;SDS011;30019;50.576;8.568;2022-12-07T05:06:25;36.50;;;19.80;;
44304;SDS011;30019;50.576;8.568;2022-12-07T05:08:51;35.92;;;19.23;;
44304;SDS011;30019;50.576;8.568;2022-12-07T05:11:17;39.58;;;20.98;;
44304;SDS011;30019;50.576;8.568;2022-12-07T05:14:04;42.90;;;21.33;;
44304;SDS011;30019;50.576;8.568;2022-12-07T05:16:44;34.38;;;19.02;;
44304;SDS011;30019;50.576;8.568;2022-12-07T05:19:12;33.67;;;19.62;;
44304;SDS011;30019;50.576;8.568;2022-12-07T05:21:38;36.50;;;19.30;;
44304;SDS011;30019;50.576;8.568;2022-12-07T05:24:04;34.05;;;20.17;;
44304;SDS011;30019;50.576;8.568;2022-12-07T05:26:31;31.62;;;17.60;;
44304;SDS011;30019;50.576;8.568;2022-12-07T05:28:57;30.92;;;18.70;;
44304;SDS011;30019;50.576;8.568;2022-12-07T05:31:24;33.58;;;18.80;;
44304;SDS011;30019;50.576;8.568;2022-12-07T05:33:52;36.50;;;19.30;;
44304;SDS011;30019;50.576;8.568;2022-12-07T05:36:18;35.05;;;19.87;;
44304;SDS011;30019;50.576;8.568;2022-12-07T05:38:44;43.63;;;21.12;;
44304;SDS011;30019;50.576;8.568;2022-12-07T05:41:11;32.00;;;18.70;;
44304;SDS011;30019;50.576;8.568;2022-12-07T05:43:58;33.40;;;20.10;;
44304;SDS011;30019;50.576;8.568;2022-12-07T05:46:23;33.80;;;19.12;;
44304;SDS011;30019;50.576;8.568;2022-12-07T05:48:49;29.92;;;17.60;;
44304;SDS011;30019;50.576;8.568;2022-12-07T05:51:15;34.00;;;21.05;;
44304;SDS011;30019;50.576;8.568;2022-12-07T05:53:41;36.03;;;20.33;;
44304;SDS011;30019;50.576;8.568;2022-12-07T05:56:06;33.72;;;19.55;;
44304;SDS011;30019;50.576;8.568;2022-12-07T05:58:32;34.28;;;19.60;;
44304;SDS011;30019;50.576;8.568;2022-12-07T06:01:16;37.20;;;20.05;;
44304;SDS011;30019;50.576;8.568;2022-12-07T06:03:41;38.20;;;19.77;;
44304;SDS011;30019;50.576;8.568;2022-12-07T06:06:07;32.22;;;19.77;;
44304;SDS011;30019;50.576;8.568;2022-12-07T06:08:32;36.20;;;20.12;;
44304;SDS011;30019;50.576;8.568;2022-12-07T06:10:58;34.28;;;21.25;;
44304;SDS011;30019;50.576;8.568;2022-12-07T06:16:08;33.30;;;19.40;;
44304;SDS011;30019;50.576;8.568;2022-12-07T06:18:33;34.58;;;19.35;;
44304;SDS011;30019;50.576;8.568;2022-12-07T06:20:59;34.35;;;19.15;;
44304;SDS011;30019;50.576;8.568;2022-12-07T06:23:24;30.45;;;19.20;;
44304;SDS011;30019;50.576;8.568;2022-12-07T06:25:50;32.83;;;19.67;;
44304;SDS011;30019;50.576;8.568;2022-12-07T06:28:15;33.60;;;19.77;;
44304;SDS011;30019;50.576;8.568;2022-12-07T06:30:41;37.15;;;22.83;;
44304;SDS011;30019;50.576;8.568;2022-12-07T06:33:07;38.97;;;22.45;;
44304;SDS011;30019;50.576;8.568;2022-12-07T06:35:32;42.25;;;22.83;;
44304;SDS011;30019;50.576;8.568;2022-12-07T06:37:58;50.50;;;23.65;;
44304;SDS011;30019;50.576;8.568;2022-12-07T06:40:24;47.67;;;23.67;;
44304;SDS011;30019;50.576;8.568;2022-12-07T06:42:49;55.75;;;24.45;;
44304;SDS011;30019;50.576;8.568;2022-12-07T06:45:15;47.97;;;22.85;;
44304;SDS011;30019;50.576;8.568;2022-12-07T06:47:40;44.10;;;23.42;;
44304;SDS011;30019;50.576;8.568;2022-12-07T06:50:06;49.15;;;22.65;;
44304;SDS011;30019;50.576;8.568;2022-12-07T06:52:33;54.55;;;24.60;;
44304;SDS011;30019;50.576;8.568;2022-12-07T06:54:58;67.65;;;25.30;;
44304;SDS011;30019;50.576;8.568;2022-12-07T06:57:24;64.55;;;27.58;;
44304;SDS011;30019;50.576;8.568;2022-12-07T06:59:50;60.53;;;26.55;;
44304;SDS011;30019;50.576;8.568;2022-12-07T07:02:16;65.25;;;27.45;;
44304;SDS011;30019;50.576;8.568;2022-12-07T07:04:41;63.78;;;25.25;;
44304;SDS011;30019;50.576;8.568;2022-12-07T07:07:07;64.55;;;26.48;;
44304;SDS011;30019;50.576;8.568;2022-12-07T07:09:33;62.17;;;24.80;;
44304;SDS011;30019;50.576;8.568;2022-12-07T07:11:59;71.97;;;27.35;;
44304;SDS011;30019;50.576;8.568;2022-12-07T07:14:24;73.18;;;28.60;;
44304;SDS011;30019;50.576;8.568;2022-12-07T07:16:50;79.35;;;28.87;;
44304;SDS011;30019;50.576;8.568;2022-12-07T07:19:15;78.00;;;29.67;;
44304;SDS011;30019;50.576;8.568;2022-12-07T07:21:41;90.78;;;30.58;;
44304;SDS011;30019;50.576;8.568;2022-12-07T07:24:07;83.68;;;30.70;;
44304;SDS011;30019;50.576;8.568;2022-12-07T07:26:32;93.53;;;31.85;;
44304;SDS011;30019;50.576;8.568;2022-12-07T07:28:58;90.82;;;31.45;;
44304;SDS011;30019;50.576;8.568;2022-12-07T07:31:23;95.95;;;32.13;;
44304;SDS011;30019;50.576;8.568;2022-12-07T07:33:49;98.03;;;33.22;;
44304;SDS011;30019;50.576;8.568;2022-12-07T07:36:14;87.70;;;31.83;;
44304;SDS011;30019;50.576;8.568;2022-12-07T07:38:40;98.47;;;31.33;;
44304;SDS011;30019;50.576;8.568;2022-12-07T07:41:05;94.03;;;32.80;;
44304;SDS011;30019;50.576;8.568;2022-12-07T07:43:32;82.97;;;29.80;;
44304;SDS011;30019;50.576;8.568;2022-12-07T07:45:57;91.37;;;31.40;;
44304;SDS011;30019;50.576;8.568;2022-12-07T07:48:23;91.40;;;33.35;;
44304;SDS011;30019;50.576;8.568;2022-12-07T07:50:50;90.97;;;32.10;;
44304;SDS011;30019;50.576;8.568;2022-12-07T07:53:16;91.40;;;33.47;;
44304;SDS011;30019;50.576;8.568;2022-12-07T07:55:41;98.85;;;33.30;;
44304;SDS011;30019;50.576;8.568;2022-12-07T07:58:14;94.18;;;33.80;;
44304;SDS011;30019;50.576;8.568;2022-12-07T08:00:40;89.32;;;32.63;;
44304;SDS011;30019;50.576;8.568;2022-12-07T08:03:05;93.12;;;33.03;;
44304;SDS011;30019;50.576;8.568;2022-12-07T08:05:31;88.47;;;32.20;;
44304;SDS011;30019;50.576;8.568;2022-12-07T08:07:57;91.22;;;35.38;;
44304;SDS011;30019;50.576;8.568;2022-12-07T08:10:22;88.53;;;34.70;;
44304;SDS011;30019;50.576;8.568;2022-12-07T08:12:48;91.97;;;34.80;;
44304;SDS011;30019;50.576;8.568;2022-12-07T08:15:32;84.87;;;33.95;;
44304;SDS011;30019;50.576;8.568;2022-12-07T08:17:58;81.20;;;31.95;;
44304;SDS011;30019;50.576;8.568;2022-12-07T08:20:24;85.45;;;33.15;;
44304;SDS011;30019;50.576;8.568;2022-12-07T08:22:49;77.82;;;30.65;;
44304;SDS011;30019;50.576;8.568;2022-12-07T08:25:15;82.43;;;31.17;;
44304;SDS011;30019;50.576;8.568;2022-12-07T08:27:41;84.43;;;34.35;;
44304;SDS011;30019;50.576;8.568;2022-12-07T08:30:07;77.20;;;31.85;;
44304;SDS011;30019;50.576;8.568;2022-12-07T08:32:34;81.20;;;32.45;;
44304;SDS011;30019;50.576;8.568;2022-12-07T08:34:59;75.45;;;31.12;;
44304;SDS011;30019;50.576;8.568;2022-12-07T08:37:25;81.93;;;33.55;;
44304;SDS011;30019;50.576;8.568;2022-12-07T08:39:51;85.18;;;31.37;;
44304;SDS011;30019;50.576;8.568;2022-12-07T08:42:23;70.45;;;30.98;;
44304;SDS011;30019;50.576;8.568;2022-12-07T08:44:56;67.82;;;29.42;;
44304;SDS011;30019;50.576;8.568;2022-12-07T08:47:22;76.43;;;31.83;;
44304;SDS011;30019;50.576;8.568;2022-12-07T08:49:49;79.62;;;31.62;;
44304;SDS011;30019;50.576;8.568;2022-12-07T08:52:17;62.83;;;28.50;;
44304;SDS011;30019;50.576;8.568;2022-12-07T08:54:43;64.53;;;29.30;;
44304;SDS011;30019;50.576;8.568;2022-12-07T08:57:10;54.22;;;26.80;;
44304;SDS011;30019;50.576;8.568;2022-12-07T08:59:36;55.25;;;26.23;;
44304;SDS011;30019;50.576;8.568;2022-12-07T09:02:03;46.20;;;24.12;;
44304;SDS011;30019;50.576;8.568;2022-12-07T09:04:29;47.75;;;24.70;;
44304;SDS011;30019;50.576;8.568;2022-12-07T09:06:55;44.47;;;24.42;;
44304;SDS011;30019;50.576;8.568;2022-12-07T09:09:21;41.30;;;22.23;;
44304;SDS011;30019;50.576;8.568;2022-12-07T09:11:47;34.95;;;20.73;;
44304;SDS011;30019;50.576;8.568;2022-12-07T09:14:14;37.00;;;19.53;;
44304;SDS011;30019;50.576;8.568;2022-12-07T09:16:40;36.20;;;20.23;;
44304;SDS011;30019;50.576;8.568;2022-12-07T09:19:07;34.17;;;17.83;;
44304;SDS011;30019;50.576;8.568;2022-12-07T09:21:33;33.83;;;17.90;;
44304;SDS011;30019;50.576;8.568;2022-12-07T09:23:59;33.22;;;17.27;;
44304;SDS011;30019;50.576;8.568;2022-12-07T09:26:24;34.03;;;15.85;;
44304;SDS011;30019;50.576;8.568;2022-12-07T09:28:50;26.80;;;15.63;;
44304;SDS011;30019;50.576;8.568;2022-12-07T09:31:16;25.65;;;15.93;;
44304;SDS011;30019;50.576;8.568;2022-12-07T09:33:42;25.90;;;16.05;;
44304;SDS011;30019;50.576;8.568;2022-12-07T09:36:07;26.40;;;16.00;;
44304;SDS011;30019;50.576;8.568;2022-12-07T09:38:34;26.85;;;14.43;;
44304;SDS011;30019;50.576;8.568;2022-12-07T09:41:03;24.23;;;14.25;;
44304;SDS011;30019;50.576;8.568;2022-12-07T09:43:31;22.37;;;15.07;;
44304;SDS011;30019;50.576;8.568;2022-12-07T09:45:56;31.87;;;16.27;;
44304;SDS011;30019;50.576;8.568;2022-12-07T09:48:32;29.80;;;15.23;;
44304;SDS011;30019;50.576;8.568;2022-12-07T09:51:02;22.58;;;12.82;;
44304;SDS011;30019;50.576;8.568;2022-12-07T09:53:34;18.55;;;10.88;;
44304;SDS011;30019;50.576;8.568;2022-12-07T09:56:02;16.10;;;10.65;;
44304;SDS011;30019;50.576;8.568;2022-12-07T09:58:29;17.33;;;9.48;;
44304;SDS011;30019;50.576;8.568;2022-12-07T10:01:09;16.98;;;10.07;;
44304;SDS011;30019;50.576;8.568;2022-12-07T10:03:49;18.87;;;10.35;;
44304;SDS011;30019;50.576;8.568;2022-12-07T10:06:17;20.77;;;10.80;;
44304;SDS011;30019;50.576;8.568;2022-12-07T10:08:43;21.77;;;11.30;;
44304;SDS011;30019;50.576;8.568;2022-12-07T10:11:08;15.05;;;9.98;;
44304;SDS011;30019;50.576;8.568;2022-12-07T10:13:37;13.48;;;8.57;;
44304;SDS011;30019;50.576;8.568;2022-12-07T10:16:04;18.62;;;9.27;;
44304;SDS011;30019;50.576;8.568;2022-12-07T10:18:36;14.23;;;8.60;;
44304;SDS011;30019;50.576;8.568;2022-12-07T10:21:05;23.85;;;10.07;;
44304;SDS011;30019;50.576;8.568;2022-12-07T10:23:38;22.95;;;11.35;;
44304;SDS011;30019;50.576;8.568;2022-12-07T10:26:31;13.90;;;9.88;;
44304;SDS011;30019;50.576;8.568;2022-12-07T10:29:14;17.45;;;10.25;;
44304;SDS011;30019;50.576;8.568;2022-12-07T10:31:45;17.42;;;10.25;;
44304;SDS011;30019;50.576;8.568;2022-12-07T10:34:24;21.80;;;8.27;;
44304;SDS011;30019;50.576;8.568;2022-12-07T10:37:07;10.38;;;6.37;;
44304;SDS011;30019;50.576;8.568;2022-12-07T10:42:24;7.95;;;2.97;;
44304;SDS011;30019;50.576;8.568;2022-12-07T10:45:08;8.82;;;3.95;;
44304;SDS011;30019;50.576;8.568;2022-12-07T10:47:51;8.90;;;4.75;;
44304;SDS011;30019;50.576;8.568;2022-12-07T10:53:20;14.25;;;9.15;;
44304;SDS011;30019;50.576;8.568;2022-12-07T10:55:51;14.23;;;8.48;;
44304;SDS011;30019;50.576;8.568;2022-12-07T11:01:32;13.88;;;7.22;;
44304;SDS011;30019;50.576;8.568;2022-12-07T11:04:18;16.02;;;8.43;;
44304;SDS011;30019;50.576;8.568;2022-12-07T11:07:03;9.25;;;4.95;;
44304;SDS011;30019;50.576;8.568;2022-12-07T11:09:47;10.70;;;4.70;;
44304;SDS011;30019;50.576;8.568;2022-12-07T11:15:01;6.47;;;3.40;;
44304;SDS011;30019;50.576;8.568;2022-12-07T11:20:43;4.80;;;3.08;;
44304;SDS011;30019;50.576;8.568;2022-12-07T11:24:01;6.32;;;2.53;;
44304;SDS011;30019;50.576;8.568;2022-12-07T11:26:24;8.68;;;2.35;;
44304;SDS011;30019;50.576;8.568;2022-12-07T11:32:16;11.35;;;3.37;;
44304;SDS011;30019;50.576;8.568;2022-12-07T11:37:40;11.27;;;3.20;;
44304;SDS011;30019;50.576;8.568;2022-12-07T11:42:45;5.43;;;2.50;;
44304;SDS011;30019;50.576;8.568;2022-12-07T11:45:24;6.72;;;2.50;;
44304;SDS011;30019;50.576;8.568;2022-12-07T11:48:10;10.70;;;2.17;;
44304;SDS011;30019;50.576;8.568;2022-12-07T11:50:51;4.90;;;2.33;;
44304;SDS011;30019;50.576;8.568;2022-12-07T11:53:25;6.72;;;2.30;;
44304;SDS011;30019;50.576;8.568;2022-12-07T11:56:00;5.68;;;3.03;;
44304;SDS011;30019;50.576;8.568;2022-12-07T12:03:40;9.52;;;2.87;;
44304;SDS011;30019;50.576;8.568;2022-12-07T12:06:30;9.13;;;3.60;;
44304;SDS011;30019;50.576;8.568;2022-12-07T12:09:06;8.27;;;3.00;;
44304;SDS011;30019;50.576;8.568;2022-12-07T12:20:01;9.07;;;2.90;;
44304;SDS011;30019;50.576;8.568;2022-12-07T12:22:42;6.50;;;2.53;;
44304;SDS011;30019;50.576;8.568;2022-12-07T12:25:22;8.95;;;3.62;;
44304;SDS011;30019;50.576;8.568;2022-12-07T12:28:05;6.62;;;2.67;;
44304;SDS011;30019;50.576;8.568;2022-12-07T12:30:43;7.50;;;3.70;;
44304;SDS011;30019;50.576;8.568;2022-12-07T12:35:39;6.97;;;3.03;;
44304;SDS011;30019;50.576;8.568;2022-12-07T12:40:53;10.35;;;3.70;;
44304;SDS011;30019;50.576;8.568;2022-12-07T12:48:54;8.52;;;3.50;;
44304;SDS011;30019;50.576;8.568;2022-12-07T12:51:39;9.70;;;3.75;;
44304;SDS011;30019;50.576;8.568;2022-12-07T13:02:16;9.30;;;3.12;;
44304;SDS011;30019;50.576;8.568;2022-12-07T13:10:33;9.75;;;3.60;;
44304;SDS011;30019;50.576;8.568;2022-12-07T13:15:51;10.40;;;4.10;;
44304;SDS011;30019;50.576;8.568;2022-12-07T13:18:37;12.00;;;4.05;;
44304;SDS011;30019;50.576;8.568;2022-12-07T13:23:36;5.87;;;2.12;;
44304;SDS011;30019;50.576;8.568;2022-12-07T13:26:21;4.65;;;1.58;;
44304;SDS011;30019;50.576;8.568;2022-12-07T13:37:46;2.85;;;1.40;;
44304;SDS011;30019;50.576;8.568;2022-12-07T13:39:47;4.10;;;1.52;;
44304;SDS011;30019;50.576;8.568;2022-12-07T13:42:24;7.80;;;1.73;;
44304;SDS011;30019;50.576;8.568;2022-12-07T13:44:55;2.87;;;1.95;;
44304;SDS011;30019;50.576;8.568;2022-12-07T13:47:30;3.42;;;1.77;;
44304;SDS011;30019;50.576;8.568;2022-12-07T13:50:01;6.15;;;2.20;;
44304;SDS011;30019;50.576;8.568;2022-12-07T13:52:45;7.37;;;2.37;;
44304;SDS011;30019;50.576;8.568;2022-12-07T13:55:15;9.38;;;2.30;;
44304;SDS011;30019;50.576;8.568;2022-12-07T13:57:44;5.72;;;2.58;;
44304;SDS011;30019;50.576;8.568;2022-12-07T14:00:16;4.82;;;2.67;;
44304;SDS011;30019;50.576;8.568;2022-12-07T14:05:30;7.72;;;3.45;;
44304;SDS011;30019;50.576;8.568;2022-12-07T14:08:00;7.00;;;3.40;;
44304;SDS011;30019;50.576;8.568;2022-12-07T14:10:36;6.62;;;3.30;;
44304;SDS011;30019;50.576;8.568;2022-12-07T14:16:18;11.43;;;2.95;;
44304;SDS011;30019;50.576;8.568;2022-12-07T14:18:48;10.63;;;4.53;;
44304;SDS011;30019;50.576;8.568;2022-12-07T14:21:14;7.47;;;3.33;;
44304;SDS011;30019;50.576;8.568;2022-12-07T14:23:43;8.25;;;3.10;;
44304;SDS011;30019;50.576;8.568;2022-12-07T14:26:13;10.15;;;3.17;;
44304;SDS011;30019;50.576;8.568;2022-12-07T14:28:40;8.02;;;4.00;;
44304;SDS011;30019;50.576;8.568;2022-12-07T14:31:11;8.57;;;3.22;;
44304;SDS011;30019;50.576;8.568;2022-12-07T14:33:46;11.98;;;5.25;;
44304;SDS011;30019;50.576;8.568;2022-12-07T14:36:12;13.05;;;5.65;;
44304;SDS011;30019;50.576;8.568;2022-12-07T14:38:38;10.00;;;3.90;;
44304;SDS011;30019;50.576;8.568;2022-12-07T14:41:06;10.48;;;3.90;;
44304;SDS011;30019;50.576;8.568;2022-12-07T14:43:58;15.15;;;5.28;;
44304;SDS011;30019;50.576;8.568;2022-12-07T14:46:25;20.25;;;7.68;;
44304;SDS011;30019;50.576;8.568;2022-12-07T14:48:50;19.62;;;9.48;;
44304;SDS011;30019;50.576;8.568;2022-12-07T14:51:16;30.40;;;9.25;;
44304;SDS011;30019;50.576;8.568;2022-12-07T14:53:46;12.02;;;6.80;;
44304;SDS011;30019;50.576;8.568;2022-12-07T14:56:15;23.23;;;8.27;;
44304;SDS011;30019;50.576;8.568;2022-12-07T14:58:40;15.73;;;7.87;;
44304;SDS011;30019;50.576;8.568;2022-12-07T15:01:06;11.65;;;6.28;;
44304;SDS011;30019;50.576;8.568;2022-12-07T15:03:32;14.35;;;7.03;;
44304;SDS011;30019;50.576;8.568;2022-12-07T15:05:59;14.55;;;5.87;;
44304;SDS011;30019;50.576;8.568;2022-12-07T15:08:25;14.35;;;5.68;;
44304;SDS011;30019;50.576;8.568;2022-12-07T15:11:13;12.63;;;6.05;;
44304;SDS011;30019;50.576;8.568;2022-12-07T15:13:56;13.40;;;6.30;;
44304;SDS011;30019;50.576;8.568;2022-12-07T15:16:35;10.75;;;5.62;;
44304;SDS011;30019;50.576;8.568;2022-12-07T15:19:04;9.45;;;5.35;;
44304;SDS011;30019;50.576;8.568;2022-12-07T15:21:30;11.10;;;4.47;;
44304;SDS011;30019;50.576;8.568;2022-12-07T15:23:56;10.95;;;3.95;;
44304;SDS011;30019;50.576;8.568;2022-12-07T15:26:21;7.10;;;3.22;;
44304;SDS011;30019;50.576;8.568;2022-12-07T15:28:53;11.55;;;4.93;;
44304;SDS011;30019;50.576;8.568;2022-12-07T15:31:19;9.55;;;3.10;;
44304;SDS011;30019;50.576;8.568;2022-12-07T15:33:44;7.32;;;3.05;;
44304;SDS011;30019;50.576;8.568;2022-12-07T15:36:29;5.35;;;2.72;;
44304;SDS011;30019;50.576;8.568;2022-12-07T15:38:56;9.48;;;3.83;;
44304;SDS011;30019;50.576;8.568;2022-12-07T15:41:22;4.37;;;2.17;;
44304;SDS011;30019;50.576;8.568;2022-12-07T15:43:49;6.25;;;2.33;;
44304;SDS011;30019;50.576;8.568;2022-12-07T15:49:00;8.35;;;3.25;;
44304;SDS011;30019;50.576;8.568;2022-12-07T15:51:26;11.88;;;2.60;;
44304;SDS011;30019;50.576;8.568;2022-12-07T15:53:52;6.30;;;2.03;;
44304;SDS011;30019;50.576;8.568;2022-12-07T15:56:18;5.12;;;1.48;;
44304;SDS011;30019;50.576;8.568;2022-12-07T15:58:44;9.30;;;2.15;;
44304;SDS011;30019;50.576;8.568;2022-12-07T16:01:10;6.93;;;1.70;;
44304;SDS011;30019;50.576;8.568;2022-12-07T16:03:40;5.20;;;1.98;;
44304;SDS011;30019;50.576;8.568;2022-12-07T16:06:06;5.90;;;2.03;;
44304;SDS011;30019;50.576;8.568;2022-12-07T16:08:32;13.48;;;2.45;;
44304;SDS011;30019;50.576;8.568;2022-12-07T16:10:57;8.35;;;3.00;;
44304;SDS011;30019;50.576;8.568;2022-12-07T16:13:23;8.10;;;2.20;;
44304;SDS011;30019;50.576;8.568;2022-12-07T16:15:49;6.90;;;2.25;;
44304;SDS011;30019;50.576;8.568;2022-12-07T16:18:14;6.35;;;2.72;;
44304;SDS011;30019;50.576;8.568;2022-12-07T16:20:40;8.93;;;3.55;;
44304;SDS011;30019;50.576;8.568;2022-12-07T16:23:06;6.32;;;2.65;;
44304;SDS011;30019;50.576;8.568;2022-12-07T16:25:32;8.23;;;2.97;;
44304;SDS011;30019;50.576;8.568;2022-12-07T16:27:58;5.15;;;3.10;;
44304;SDS011;30019;50.576;8.568;2022-12-07T16:30:23;13.93;;;4.45;;
44304;SDS011;30019;50.576;8.568;2022-12-07T16:32:50;7.70;;;3.90;;
44304;SDS011;30019;50.576;8.568;2022-12-07T16:35:16;6.55;;;3.40;;
44304;SDS011;30019;50.576;8.568;2022-12-07T16:37:41;9.32;;;3.47;;